createdAt,value
2019-04-05T00:00:53.696Z,0
2019-04-05T00:01:53.680Z,0
2019-04-05T00:02:53.679Z,0
2019-04-05T00:03:53.676Z,0
2019-04-05T00:04:53.656Z,0
2019-04-05T00:05:53.660Z,0
2019-04-05T00:06:53.639Z,0
2019-04-05T00:07:53.626Z,0
2019-04-05T00:08:53.623Z,0
2019-04-05T00:09:53.615Z,0
2019-04-05T00:10:53.610Z,0
2019-04-05T00:11:53.600Z,0
2019-04-05T00:17:53.538Z,0
2019-04-05T00:18:53.534Z,0
2019-04-05T00:19:53.522Z,0
2019-04-05T00:20:53.525Z,0
2019-04-05T00:21:53.504Z,0
2019-04-05T00:22:53.501Z,0
2019-04-05T00:23:53.493Z,0
2019-04-05T00:24:53.482Z,0
2019-04-05T00:25:53.225Z,0
2019-04-05T00:26:53.466Z,0
2019-04-05T00:27:53.450Z,0
2019-04-05T00:28:56.438Z,0
2019-04-05T00:29:53.491Z,0
2019-04-05T00:30:53.482Z,0
2019-04-05T00:31:53.422Z,0
2019-04-05T01:46:55.877Z,0
2019-04-05T01:47:52.707Z,0
2019-04-05T01:48:52.701Z,0
2019-04-05T01:49:52.684Z,0
2019-04-05T01:50:52.694Z,0
2019-04-05T01:51:52.673Z,0
2019-04-05T01:52:52.678Z,0
2019-04-05T01:53:52.654Z,0
2019-04-05T01:54:52.645Z,0
2019-04-05T01:55:52.390Z,0
2019-04-05T02:00:52.356Z,0
2019-04-05T02:01:52.575Z,0
2019-04-05T02:02:52.563Z,0
2019-04-05T02:03:52.562Z,0
2019-04-05T02:04:55.160Z,0
2019-04-05T02:05:52.291Z,0
2019-04-05T02:06:52.550Z,0
2019-04-05T02:07:52.512Z,0
2019-04-05T02:08:52.506Z,0
2019-04-05T02:09:52.493Z,0
2019-04-05T02:10:52.241Z,0
2019-04-05T02:11:52.474Z,0
2019-04-05T02:12:52.473Z,0
2019-04-05T02:13:52.457Z,0
2019-04-05T02:14:52.458Z,0
2019-04-05T02:15:52.191Z,0
2019-04-05T02:16:52.428Z,0
2019-04-05T02:17:52.420Z,0
2019-04-05T02:18:52.409Z,0
2019-04-05T02:19:52.405Z,0
2019-04-05T02:20:52.142Z,0
2019-04-05T02:21:52.382Z,0
2019-04-05T02:22:52.367Z,0
2019-04-05T02:23:52.360Z,0
2019-04-05T02:24:52.346Z,0
2019-04-05T02:25:52.092Z,0
2019-04-05T02:26:52.324Z,0
2019-04-05T02:27:52.316Z,0
2019-04-05T02:28:52.307Z,0
2019-04-05T02:29:52.309Z,0
2019-04-05T02:30:52.052Z,0
2019-04-05T02:31:52.297Z,0
2019-04-05T02:32:52.276Z,0
2019-04-05T02:33:52.270Z,0
2019-04-05T02:34:52.272Z,0
2019-04-05T02:35:52.243Z,0
2019-04-05T02:36:52.234Z,0
2019-04-05T02:37:52.338Z,0
2019-04-05T02:38:52.240Z,0
2019-04-05T02:39:52.217Z,0
2019-04-05T02:40:52.205Z,0
2019-04-05T02:41:52.189Z,0
2019-04-05T02:42:52.222Z,0
2019-04-05T02:43:52.171Z,0
2019-04-05T02:44:52.151Z,0
2019-04-05T02:45:52.169Z,0
2019-04-05T03:09:51.897Z,0
2019-04-05T03:10:51.894Z,0
2019-04-05T03:11:51.893Z,0
2019-04-05T03:12:51.866Z,0
2019-04-05T03:13:51.860Z,0
2019-04-05T03:14:51.856Z,0
2019-04-05T03:15:51.860Z,0
2019-04-05T03:16:51.830Z,0
2019-04-05T03:17:51.835Z,0
2019-04-05T03:18:51.830Z,0
2019-04-05T03:19:51.820Z,0
2019-04-05T03:20:51.788Z,0
2019-04-05T03:21:51.795Z,0
2019-04-05T03:22:51.767Z,0
2019-04-05T03:23:51.762Z,0
2019-04-05T03:24:51.748Z,0
2019-04-05T03:25:55.232Z,0
2019-04-05T03:26:51.726Z,0
2019-04-05T03:27:51.728Z,0
2019-04-05T03:28:51.704Z,0
2019-04-05T03:29:51.693Z,0
2019-04-05T03:30:51.696Z,0
2019-04-05T03:31:51.694Z,0
2019-04-05T03:32:51.689Z,0
2019-04-05T03:33:51.662Z,0
2019-04-05T03:34:51.712Z,0
2019-04-05T03:35:51.637Z,0
2019-04-05T03:36:54.234Z,0
2019-04-05T03:37:51.612Z,0
2019-04-05T03:38:51.625Z,0
2019-04-05T03:39:51.592Z,0
2019-04-05T03:40:51.587Z,0
2019-04-05T03:41:51.586Z,0
2019-04-05T03:42:51.677Z,0
2019-04-05T03:43:51.543Z,0
2019-04-05T03:44:51.570Z,0
2019-04-05T03:45:51.542Z,0
2019-04-05T03:47:03.495Z,0
2019-04-05T03:49:55.296Z,0
2019-04-05T03:50:52.531Z,0
2019-04-05T03:51:51.462Z,0
2019-04-05T03:52:51.455Z,0
2019-04-05T03:53:51.451Z,0
2019-04-05T03:54:51.440Z,0
2019-04-05T03:55:51.193Z,4
2019-04-05T03:56:51.429Z,4
2019-04-05T03:57:51.399Z,0
2019-04-05T03:58:51.410Z,4
2019-04-05T03:59:51.370Z,4
2019-04-05T04:00:51.385Z,4
2019-04-05T04:01:51.376Z,4
2019-04-05T04:02:51.379Z,4
2019-04-05T04:03:51.359Z,4
2019-04-05T04:04:51.336Z,4
2019-04-05T04:05:51.084Z,8
2019-04-05T04:06:51.307Z,12
2019-04-05T04:07:51.356Z,12
2019-04-05T04:08:51.288Z,12
2019-04-05T04:09:51.266Z,16
2019-04-05T04:10:51.251Z,20
2019-04-05T04:11:51.263Z,20
2019-04-05T04:12:51.254Z,28
2019-04-05T04:13:51.227Z,32
2019-04-05T04:14:51.203Z,36
2019-04-05T04:15:51.267Z,40
2019-04-05T04:16:51.210Z,48
2019-04-05T04:17:51.247Z,60
2019-04-05T04:18:51.289Z,68
2019-04-05T04:19:51.186Z,76
2019-04-05T04:20:51.180Z,88
2019-04-05T04:21:51.142Z,104
2019-04-05T04:22:53.412Z,120
2019-04-05T04:23:51.122Z,132
2019-04-05T04:24:51.124Z,152
2019-04-05T04:25:51.102Z,172
2019-04-05T04:26:51.089Z,192
2019-04-05T04:27:51.065Z,212
2019-04-05T04:28:51.076Z,240
2019-04-05T04:29:51.042Z,268
2019-04-05T04:30:51.041Z,296
2019-04-05T04:31:51.031Z,324
2019-04-05T04:32:51.039Z,356
2019-04-05T04:33:51.008Z,392
2019-04-05T04:34:50.991Z,428
2019-04-05T04:35:51.019Z,464
2019-04-05T04:36:50.970Z,504
2019-04-05T04:37:50.948Z,548
2019-04-05T04:38:50.948Z,588
2019-04-05T04:39:50.955Z,632
2019-04-05T04:40:50.915Z,680
2019-04-05T04:41:50.909Z,732
2019-04-05T04:42:50.901Z,780
2019-04-05T04:43:50.883Z,840
2019-04-05T04:44:50.880Z,896
2019-04-05T04:45:50.870Z,960
2019-04-05T04:46:53.012Z,1024
2019-04-05T04:47:50.844Z,1088
2019-04-05T04:48:50.829Z,1160
2019-04-05T04:49:50.832Z,1232
2019-04-05T04:50:50.813Z,1308
2019-04-05T04:51:50.787Z,1388
2019-04-05T04:52:50.777Z,1472
2019-04-05T04:53:50.774Z,1568
2019-04-05T04:54:50.761Z,1668
2019-04-05T04:55:50.741Z,1768
2019-04-05T04:56:50.732Z,1864
2019-04-05T04:57:50.719Z,1968
2019-04-05T04:58:53.436Z,2080
2019-04-05T04:59:50.702Z,2188
2019-04-05T05:00:50.733Z,2288
2019-04-05T05:01:50.687Z,2400
2019-04-05T05:02:50.669Z,2512
2019-04-05T05:03:50.694Z,2636
2019-04-05T05:04:50.401Z,2768
2019-04-05T05:05:50.634Z,2896
2019-04-05T05:06:50.631Z,3024
2019-04-05T05:07:50.616Z,3172
2019-04-05T05:08:50.609Z,3328
2019-04-05T05:09:50.590Z,3464
2019-04-05T05:10:50.586Z,3624
2019-04-05T05:11:50.572Z,3792
2019-04-05T05:12:50.570Z,3928
2019-04-05T05:13:50.554Z,4096
2019-04-05T05:14:50.543Z,4252
2019-04-05T05:15:50.529Z,4388
2019-04-05T05:16:50.562Z,4556
2019-04-05T05:18:02.710Z,4752
2019-04-05T05:18:50.528Z,4892
2019-04-05T05:19:50.503Z,5076
2019-04-05T05:20:50.489Z,5192
2019-04-05T05:21:50.480Z,5412
2019-04-05T05:22:50.470Z,5536
2019-04-05T05:23:50.460Z,5616
2019-04-05T05:24:50.461Z,5804
2019-04-05T05:25:51.820Z,5948
2019-04-05T05:26:50.435Z,6044
2019-04-05T05:27:50.433Z,6288
2019-04-05T05:28:50.419Z,6536
2019-04-05T05:29:50.665Z,6700
2019-04-05T05:30:50.398Z,6932
2019-04-05T05:31:50.399Z,7180
2019-04-05T05:32:50.388Z,7452
2019-04-05T05:33:50.454Z,7520
2019-04-05T05:35:03.693Z,7708
2019-04-05T05:35:50.359Z,8068
2019-04-05T05:36:50.356Z,8188
2019-04-05T05:37:50.367Z,8276
2019-04-05T05:38:50.345Z,8656
2019-04-05T05:39:50.341Z,8688
2019-04-05T05:40:50.373Z,8788
2019-04-05T05:41:50.321Z,8780
2019-04-05T05:42:50.326Z,8992
2019-04-05T05:43:50.317Z,9224
2019-04-05T05:44:50.090Z,9200
2019-04-05T05:45:50.298Z,9416
2019-04-05T05:46:50.301Z,9888
2019-04-05T05:47:59.222Z,10136
2019-04-05T05:48:50.284Z,10476
2019-04-05T05:49:50.273Z,10720
2019-04-05T05:50:50.268Z,10636
2019-04-05T05:51:50.043Z,10948
2019-04-05T05:52:50.265Z,11492
2019-04-05T05:53:50.304Z,11740
2019-04-05T05:54:50.250Z,11252
2019-04-05T05:55:50.034Z,11308
2019-04-05T05:56:50.245Z,11884
2019-04-05T05:57:54.192Z,12788
2019-04-05T05:58:50.231Z,13100
2019-04-05T05:59:50.224Z,12332
2019-04-05T06:00:50.474Z,12488
2019-04-05T06:01:50.220Z,13568
2019-04-05T06:02:53.201Z,13552
2019-04-05T06:03:50.214Z,13160
2019-04-05T06:04:50.212Z,13688
2019-04-05T06:05:49.727Z,15136
2019-04-05T06:06:50.212Z,15104
2019-04-05T06:07:50.199Z,14944
2019-04-05T06:08:50.193Z,15264
2019-04-05T06:09:52.473Z,15904
2019-04-05T06:10:50.187Z,15648
2019-04-05T06:11:50.244Z,15488
2019-04-05T06:12:50.259Z,13816
2019-04-05T06:13:50.183Z,14848
2019-04-05T06:14:50.215Z,14656
2019-04-05T06:15:49.689Z,12504
2019-04-05T06:16:53.706Z,12580
2019-04-05T06:17:50.164Z,12324
2019-04-05T06:18:53.345Z,10236
2019-04-05T06:19:50.161Z,9760
2019-04-05T06:20:50.164Z,9168
2019-04-05T06:21:50.164Z,6844
2019-04-05T06:22:52.363Z,5764
2019-04-05T06:23:50.153Z,5424
2019-04-05T06:24:50.148Z,5060
2019-04-05T06:25:49.901Z,4868
2019-04-05T06:26:50.149Z,4676
2019-04-05T06:27:50.136Z,4656
2019-04-05T06:28:50.719Z,4680
2019-04-05T06:29:50.135Z,4764
2019-04-05T06:30:50.134Z,4768
2019-04-05T06:31:50.376Z,4888
2019-04-05T06:32:50.115Z,4804
2019-04-05T06:33:50.119Z,4520
2019-04-05T06:34:50.102Z,4848
2019-04-05T06:35:50.106Z,5076
2019-04-05T06:36:51.241Z,4904
2019-04-05T06:37:50.147Z,4764
2019-04-05T06:38:50.104Z,4696
2019-04-05T06:39:50.083Z,4700
2019-04-05T06:40:50.078Z,4464
2019-04-05T06:41:50.070Z,4660
2019-04-05T06:42:50.066Z,4772
2019-04-05T06:43:50.059Z,4800
2019-04-05T06:44:50.057Z,4800
2019-04-05T06:45:50.024Z,5068
2019-04-05T06:46:50.050Z,5296
2019-04-05T06:47:50.046Z,5172
2019-04-05T06:48:50.096Z,4916
2019-04-05T06:49:50.026Z,4852
2019-04-05T06:50:52.180Z,5316
2019-04-05T06:51:50.028Z,5512
2019-04-05T06:52:50.003Z,5500
2019-04-05T06:53:49.760Z,5524
2019-04-05T06:54:49.985Z,5448
2019-04-05T06:55:49.737Z,5428
2019-04-05T06:56:49.973Z,5336
2019-04-05T06:57:50.083Z,5236
2019-04-05T06:58:53.424Z,5328
2019-04-05T06:59:49.960Z,5536
2019-04-05T07:01:03.410Z,5712
2019-04-05T07:01:49.974Z,5640
2019-04-05T07:02:50.187Z,5584
2019-04-05T07:03:49.930Z,5312
2019-04-05T07:04:49.915Z,5200
2019-04-05T07:05:49.666Z,5136
2019-04-05T07:06:49.901Z,4916
2019-04-05T07:07:49.647Z,5056
2019-04-05T07:09:00.786Z,5356
2019-04-05T07:09:49.874Z,5616
2019-04-05T07:10:52.383Z,5496
2019-04-05T07:11:49.866Z,5584
2019-04-05T07:12:50.019Z,5436
2019-04-05T07:13:49.854Z,5068
2019-04-05T07:14:49.836Z,4976
2019-04-05T07:15:49.586Z,4852
2019-04-05T07:16:49.825Z,4788
2019-04-05T07:17:49.818Z,4824
2019-04-05T07:18:49.805Z,4772
2019-04-05T07:19:49.837Z,4632
2019-04-05T07:20:49.551Z,4600
2019-04-05T07:21:49.778Z,4624
2019-04-05T07:22:49.781Z,4800
2019-04-05T07:23:49.774Z,4828
2019-04-05T07:24:51.969Z,4828
2019-04-05T07:25:49.509Z,5024
2019-04-05T07:26:49.738Z,5364
2019-04-05T07:27:49.733Z,5552
2019-04-05T07:28:49.728Z,5560
2019-04-05T07:29:49.736Z,5384
2019-04-05T07:30:49.469Z,5176
2019-04-05T07:31:49.699Z,5132
2019-04-05T07:32:49.694Z,5084
2019-04-05T07:33:49.932Z,4996
2019-04-05T07:34:49.676Z,4980
2019-04-05T07:35:49.418Z,4944
2019-04-05T07:36:49.653Z,5080
2019-04-05T07:37:49.645Z,5028
2019-04-05T07:38:49.650Z,5160
2019-04-05T07:39:49.689Z,5536
2019-04-05T07:40:49.634Z,5780
2019-04-05T07:41:49.623Z,5832
2019-04-05T07:42:49.615Z,6028
2019-04-05T07:43:49.597Z,6356
2019-04-05T07:44:49.591Z,6616
2019-04-05T07:45:50.937Z,6508
2019-04-05T07:46:51.375Z,6420
2019-04-05T07:47:49.577Z,6472
2019-04-05T07:48:52.418Z,6588
2019-04-05T07:49:49.544Z,6604
2019-04-05T07:50:49.294Z,6540
2019-04-05T07:51:49.290Z,6592
2019-04-05T07:52:49.521Z,7156
2019-04-05T07:53:49.507Z,7684
2019-04-05T07:54:49.256Z,7584
2019-04-05T07:55:49.496Z,7832
2019-04-05T07:56:51.128Z,8140
2019-04-05T07:57:49.475Z,8124
2019-04-05T07:58:49.466Z,8036
2019-04-05T07:59:49.460Z,8044
2019-04-05T08:00:49.466Z,7832
2019-04-05T08:01:49.204Z,8036
2019-04-05T08:02:49.433Z,8524
2019-04-05T08:03:49.428Z,8760
2019-04-05T08:04:49.670Z,9116
2019-04-05T08:05:49.422Z,9192
2019-04-05T08:06:49.405Z,9340
2019-04-05T08:07:49.394Z,9504
2019-04-05T08:08:49.389Z,9592
2019-04-05T08:09:49.375Z,9940
2019-04-05T08:10:49.373Z,10004
2019-04-05T08:11:49.361Z,10420
2019-04-05T08:12:49.352Z,11180
2019-04-05T08:13:49.344Z,10968
2019-04-05T08:14:49.505Z,10788
2019-04-05T08:15:49.336Z,10692
2019-04-05T08:16:49.341Z,10968
2019-04-05T08:17:49.313Z,10964
2019-04-05T08:19:01.656Z,10648
2019-04-05T08:19:49.299Z,10632
2019-04-05T08:20:49.292Z,10672
2019-04-05T08:21:49.286Z,10808
2019-04-05T08:22:49.285Z,11336
2019-04-05T08:23:49.033Z,11412
2019-04-05T08:24:49.267Z,11728
2019-04-05T08:25:49.266Z,11596
2019-04-05T08:26:49.245Z,11092
2019-04-05T08:27:49.237Z,11308
2019-04-05T08:28:49.249Z,11084
2019-04-05T08:29:49.230Z,10668
2019-04-05T08:30:49.222Z,10396
2019-04-05T08:31:49.211Z,10532
2019-04-05T08:32:49.203Z,11236
2019-04-05T08:33:49.202Z,11588
2019-04-05T08:34:49.203Z,11136
2019-04-05T08:35:49.194Z,10500
2019-04-05T08:36:49.174Z,9892
2019-04-05T08:37:49.232Z,9896
2019-04-05T08:38:49.162Z,10636
2019-04-05T08:39:49.162Z,11512
2019-04-05T08:40:49.202Z,11596
2019-04-05T08:41:49.143Z,11560
2019-04-05T08:42:49.133Z,11524
2019-04-05T08:43:51.902Z,11616
2019-04-05T08:44:49.132Z,11572
2019-04-05T08:45:49.117Z,11432
2019-04-05T08:46:49.109Z,11404
2019-04-05T08:47:49.109Z,10920
2019-04-05T08:48:52.093Z,10208
2019-04-05T08:49:49.089Z,9728
2019-04-05T08:50:49.099Z,9584
2019-04-05T08:51:49.084Z,9716
2019-04-05T08:52:49.118Z,10152
2019-04-05T08:53:49.079Z,10084
2019-04-05T08:54:49.053Z,10172
2019-04-05T08:55:49.046Z,10440
2019-04-05T08:56:49.038Z,10472
2019-04-05T08:57:50.529Z,9744
2019-04-05T08:58:49.049Z,9276
2019-04-05T08:59:49.024Z,9320
2019-04-05T09:00:49.015Z,9324
2019-04-05T09:01:49.025Z,9184
2019-04-05T09:02:49.317Z,9768
2019-04-05T09:03:49.006Z,10336
2019-04-05T09:04:48.990Z,10256
2019-04-05T09:05:48.992Z,10028
2019-04-05T09:06:49.285Z,10084
2019-04-05T09:07:48.978Z,10872
2019-04-05T09:08:48.962Z,11104
2019-04-05T09:09:48.958Z,10964
2019-04-05T09:10:48.945Z,11016
2019-04-05T09:11:48.942Z,10524
2019-04-05T09:12:48.935Z,10200
2019-04-05T09:13:48.937Z,9956
2019-04-05T09:14:48.926Z,9872
2019-04-05T09:15:48.913Z,9908
2019-04-05T09:16:48.903Z,10496
2019-04-05T09:17:48.898Z,11512
2019-04-05T09:18:51.905Z,12052
2019-04-05T09:19:48.885Z,11560
2019-04-05T09:20:48.886Z,11384
2019-04-05T09:21:48.872Z,11348
2019-04-05T09:22:48.870Z,11324
2019-04-05T09:23:48.864Z,11676
2019-04-05T09:24:48.853Z,12828
2019-04-05T09:25:48.851Z,13988
2019-04-05T09:26:48.838Z,13312
2019-04-05T09:27:48.861Z,14040
2019-04-05T09:28:48.828Z,13988
2019-04-05T09:29:48.813Z,14288
2019-04-05T09:30:51.587Z,13080
2019-04-05T09:31:48.810Z,13280
2019-04-05T09:32:48.793Z,14004
2019-04-05T09:33:48.799Z,13356
2019-04-05T09:34:48.799Z,12196
2019-04-05T09:35:48.784Z,11952
2019-04-05T09:36:48.771Z,12352
2019-04-05T09:37:49.021Z,12484
2019-04-05T09:38:48.802Z,12556
2019-04-05T09:39:48.749Z,14492
2019-04-05T09:40:48.507Z,14488
2019-04-05T09:41:48.768Z,13032
2019-04-05T09:42:48.779Z,12296
2019-04-05T09:43:48.742Z,12448
2019-04-05T09:44:48.735Z,12696
2019-04-05T09:45:48.714Z,12800
2019-04-05T09:46:56.066Z,12944
2019-04-05T09:47:48.700Z,12808
2019-04-05T09:48:48.694Z,12488
2019-04-05T09:49:48.686Z,13084
2019-04-05T09:50:48.685Z,14156
2019-04-05T09:51:48.676Z,14656
2019-04-05T09:52:48.713Z,16096
2019-04-05T09:53:48.662Z,16224
2019-04-05T09:54:48.661Z,15552
2019-04-05T09:55:48.665Z,16128
2019-04-05T09:56:48.410Z,16416
2019-04-05T09:57:48.648Z,16192
2019-04-05T09:58:48.645Z,16704
2019-04-05T09:59:48.640Z,16576
2019-04-05T10:00:48.622Z,15428
2019-04-05T10:01:48.374Z,15072
2019-04-05T10:02:48.669Z,15520
2019-04-05T10:03:48.600Z,15736
2019-04-05T10:04:48.601Z,15748
2019-04-05T10:05:48.593Z,16864
2019-04-05T10:06:48.650Z,16832
2019-04-05T10:08:01.829Z,15436
2019-04-05T10:08:48.585Z,14668
2019-04-05T10:09:50.384Z,14180
2019-04-05T10:10:48.565Z,15068
2019-04-05T10:11:48.563Z,16256
2019-04-05T10:12:48.556Z,16576
2019-04-05T10:13:48.586Z,16544
2019-04-05T10:14:48.550Z,17568
2019-04-05T10:15:48.547Z,18656
2019-04-05T10:16:48.540Z,17472
2019-04-05T10:17:48.533Z,17088
2019-04-05T10:18:51.380Z,16960
2019-04-05T10:19:56.953Z,15348
2019-04-05T10:20:48.518Z,14768
2019-04-05T10:21:48.512Z,15344
2019-04-05T10:22:48.508Z,16448
2019-04-05T10:23:48.512Z,16960
2019-04-05T10:24:48.502Z,17696
2019-04-05T10:25:51.051Z,18272
2019-04-05T10:26:48.497Z,21408
2019-04-05T10:27:48.502Z,24864
2019-04-05T10:28:48.479Z,25632
2019-04-05T10:29:49.574Z,21600
2019-04-05T10:30:48.478Z,22272
2019-04-05T10:31:48.539Z,18912
2019-04-05T10:32:50.985Z,16284
2019-04-05T10:33:48.496Z,17792
2019-04-05T10:34:48.460Z,19904
2019-04-05T10:35:48.451Z,22176
2019-04-05T10:36:48.445Z,21856
2019-04-05T10:37:48.444Z,24000
2019-04-05T10:38:48.191Z,22240
2019-04-05T10:39:48.432Z,23200
2019-04-05T10:40:48.732Z,21376
2019-04-05T10:41:48.476Z,19456
2019-04-05T10:42:48.421Z,22432
2019-04-05T10:43:48.418Z,22880
2019-04-05T10:44:48.423Z,24768
2019-04-05T10:45:48.412Z,22944
2019-04-05T10:46:48.607Z,23328
2019-04-05T10:47:48.402Z,24416
2019-04-05T10:48:48.401Z,23040
2019-04-05T10:49:48.398Z,23744
2019-04-05T10:50:48.402Z,25920
2019-04-05T10:51:48.385Z,24512
2019-04-05T10:52:48.404Z,22464
2019-04-05T10:53:48.381Z,21696
2019-04-05T10:54:48.390Z,22560
2019-04-05T10:55:48.391Z,18912
2019-04-05T10:56:48.372Z,18208
2019-04-05T10:57:48.384Z,18080
2019-04-05T10:58:48.372Z,17888
2019-04-05T10:59:48.375Z,19200
2019-04-05T11:00:48.364Z,18112
2019-04-05T11:01:48.361Z,16896
2019-04-05T11:02:48.360Z,18272
2019-04-05T11:03:48.357Z,19200
2019-04-05T11:04:48.358Z,20704
2019-04-05T11:05:51.582Z,18400
2019-04-05T11:06:48.348Z,14864
2019-04-05T11:07:48.400Z,14468
2019-04-05T11:08:48.343Z,16264
2019-04-05T11:09:48.096Z,14772
2019-04-05T11:10:48.342Z,14176
2019-04-05T11:11:48.590Z,13100
2019-04-05T11:12:49.844Z,14916
2019-04-05T11:13:48.334Z,14796
2019-04-05T11:14:48.328Z,13116
2019-04-05T11:15:48.385Z,12672
2019-04-05T11:17:00.199Z,12644
2019-04-05T11:17:49.682Z,13016
2019-04-05T11:18:49.995Z,13596
2019-04-05T11:19:48.313Z,13928
2019-04-05T11:20:51.454Z,15552
2019-04-05T11:21:52.260Z,14092
2019-04-05T11:22:53.140Z,13524
2019-04-05T11:23:48.299Z,12804
2019-04-05T11:24:48.307Z,12800
2019-04-05T11:25:48.295Z,12616
2019-04-05T11:26:48.294Z,12332
2019-04-05T11:27:48.294Z,11952
2019-04-05T11:28:48.287Z,11640
2019-04-05T11:29:48.287Z,13144
2019-04-05T11:30:48.294Z,13188
2019-04-05T11:32:00.932Z,15868
2019-04-05T11:32:48.282Z,18016
2019-04-05T11:33:48.273Z,18304
2019-04-05T11:34:48.270Z,17920
2019-04-05T11:35:48.300Z,15976
2019-04-05T11:36:48.261Z,15168
2019-04-05T11:37:54.150Z,15964
2019-04-05T11:38:50.757Z,14168
2019-04-05T11:39:50.768Z,12636
2019-04-05T11:40:48.285Z,12140
2019-04-05T11:41:48.237Z,11992
2019-04-05T11:42:48.237Z,11680
2019-04-05T11:43:48.487Z,11712
2019-04-05T11:44:48.238Z,11852
2019-04-05T11:45:48.482Z,13172
2019-04-05T11:46:51.590Z,13948
2019-04-05T11:47:48.234Z,13696
2019-04-05T11:48:48.602Z,14424
2019-04-05T11:49:48.213Z,15488
2019-04-05T11:50:48.208Z,16172
2019-04-05T11:51:50.269Z,16048
2019-04-05T11:52:48.198Z,16992
2019-04-05T11:53:48.189Z,16672
2019-04-05T11:54:50.504Z,15940
2019-04-05T11:55:51.196Z,14924
2019-04-05T11:56:48.185Z,13540
2019-04-05T11:57:49.053Z,12604
2019-04-05T11:58:51.125Z,12524
2019-04-05T11:59:51.116Z,12184
2019-04-05T12:00:48.171Z,12044
2019-04-05T12:01:48.184Z,11480
2019-04-05T12:02:48.235Z,11220
2019-04-05T12:03:48.159Z,10832
2019-04-05T12:04:49.968Z,10804
2019-04-05T12:05:48.153Z,10808
2019-04-05T12:06:48.162Z,10768
2019-04-05T12:07:48.207Z,10908
2019-04-05T12:08:48.137Z,11060
2019-04-05T12:09:50.239Z,10848
2019-04-05T12:10:48.130Z,10568
2019-04-05T12:11:51.063Z,10444
2019-04-05T12:12:48.190Z,10388
2019-04-05T12:13:50.074Z,10352
2019-04-05T12:14:48.365Z,10376
2019-04-05T12:15:48.118Z,10416
2019-04-05T12:16:48.111Z,10352
2019-04-05T12:17:47.871Z,10248
2019-04-05T12:18:47.886Z,10248
2019-04-05T12:19:48.102Z,10300
2019-04-05T12:21:07.641Z,10024
2019-04-05T12:21:48.109Z,10032
2019-04-05T12:22:48.114Z,10092
2019-04-05T12:23:48.084Z,10076
2019-04-05T12:24:50.043Z,10036
2019-04-05T12:25:48.076Z,9980
2019-04-05T12:26:49.545Z,9932
2019-04-05T12:27:48.111Z,9932
2019-04-05T12:28:48.064Z,9916
2019-04-05T12:29:48.056Z,9892
2019-04-05T12:30:50.787Z,9864
2019-04-05T12:31:48.057Z,9840
2019-04-05T12:32:51.265Z,9852
2019-04-05T12:33:52.165Z,9844
2019-04-05T12:34:49.417Z,9824
2019-04-05T12:35:51.490Z,9776
2019-04-05T12:36:48.036Z,9736
2019-04-05T12:38:00.328Z,9748
2019-04-05T12:38:47.779Z,9764
2019-04-05T12:39:48.024Z,9756
2019-04-05T12:40:48.967Z,9752
2019-04-05T12:41:51.758Z,9796
2019-04-05T12:42:52.943Z,9808
2019-04-05T12:43:53.380Z,9844
2019-04-05T12:44:51.998Z,9832
2019-04-05T12:45:51.597Z,9812
2019-04-05T12:46:50.361Z,9848
2019-04-05T12:47:50.210Z,9888
2019-04-05T12:48:50.440Z,9936
2019-04-05T12:49:50.191Z,9856
2019-04-05T12:51:05.391Z,9892
2019-04-05T12:51:49.963Z,10012
2019-04-05T12:52:47.969Z,10188
2019-04-05T12:53:47.966Z,10016
2019-04-05T12:54:50.390Z,9900
2019-04-05T12:55:47.959Z,9796
2019-04-05T12:56:47.959Z,9744
2019-04-05T12:57:50.738Z,9684
2019-04-05T12:58:47.700Z,9608
2019-04-05T12:59:48.203Z,9544
2019-04-05T13:00:47.938Z,9516
2019-04-05T13:01:50.083Z,9500
2019-04-05T13:02:50.275Z,9484
2019-04-05T13:03:50.979Z,9472
2019-04-05T13:04:48.385Z,9444
2019-04-05T13:05:51.167Z,9368
2019-04-05T13:06:50.549Z,9280
2019-04-05T13:07:47.971Z,9228
2019-04-05T13:08:47.898Z,9176
2019-04-05T13:09:53.726Z,9144
2019-04-05T13:10:48.030Z,9120
2019-04-05T13:11:47.886Z,9092
2019-04-05T13:12:47.881Z,9064
2019-04-05T13:13:47.881Z,9036
2019-04-05T13:14:47.885Z,9016
2019-04-05T13:15:47.873Z,8988
2019-04-05T13:16:51.744Z,8964
2019-04-05T13:17:47.869Z,8960
2019-04-05T13:18:47.858Z,8960
2019-04-05T13:19:47.850Z,8928
2019-04-05T13:20:47.849Z,8896
2019-04-05T13:21:47.853Z,8856
2019-04-05T13:22:47.836Z,8824
2019-04-05T13:23:47.870Z,8796
2019-04-05T13:24:47.845Z,8772
2019-04-05T13:25:48.764Z,8764
2019-04-05T13:26:49.655Z,8768
2019-04-05T13:27:49.072Z,8772
2019-04-05T13:28:50.801Z,8768
2019-04-05T13:29:51.277Z,8760
2019-04-05T13:30:50.826Z,8744
2019-04-05T13:31:50.811Z,8708
2019-04-05T13:32:47.812Z,8660
2019-04-05T13:33:47.798Z,8596
2019-04-05T13:34:47.795Z,8548
2019-04-05T13:35:47.792Z,8532
2019-04-05T13:36:47.783Z,8516
2019-04-05T13:37:47.782Z,8484
2019-04-05T13:39:02.016Z,8452
2019-04-05T13:39:47.779Z,8444
2019-04-05T13:40:47.771Z,8448
2019-04-05T13:41:47.775Z,8424
2019-04-05T13:42:47.976Z,8400
2019-04-05T13:43:47.776Z,8368
2019-04-05T13:44:47.749Z,8332
2019-04-05T13:45:47.751Z,8308
2019-04-05T13:46:49.920Z,8300
2019-04-05T13:47:47.556Z,8312
2019-04-05T13:48:47.825Z,8320
2019-04-05T13:49:48.516Z,8324
2019-04-05T13:50:49.135Z,8320
2019-04-05T13:51:49.706Z,8340
2019-04-05T13:52:49.296Z,8364
2019-04-05T13:53:48.259Z,8380
2019-04-05T13:54:48.199Z,8408
2019-04-05T13:55:49.951Z,8440
2019-04-05T13:56:48.931Z,8464
2019-04-05T13:57:48.338Z,8480
2019-04-05T13:58:51.083Z,8496
2019-04-05T13:59:49.463Z,8508
2019-04-05T14:00:50.993Z,8520
2019-04-05T14:01:50.563Z,8520
2019-04-05T14:02:49.963Z,8504
2019-04-05T14:03:48.464Z,8488
2019-04-05T14:04:47.677Z,8480
2019-04-05T14:05:49.914Z,8476
2019-04-05T14:06:47.661Z,8464
2019-04-05T14:07:47.657Z,8452
2019-04-05T14:08:49.067Z,8444
2019-04-05T14:09:48.339Z,8436
2019-04-05T14:10:49.016Z,8428
2019-04-05T14:11:47.643Z,8420
2019-04-05T14:12:47.894Z,8404
2019-04-05T14:13:49.924Z,8388
2019-04-05T14:14:53.508Z,8388
2019-04-05T14:15:50.571Z,8400
2019-04-05T14:16:50.018Z,8412
2019-04-05T14:17:54.006Z,8428
2019-04-05T14:18:54.545Z,8424
2019-04-05T14:19:50.959Z,8396
2019-04-05T14:20:49.545Z,8368
2019-04-05T14:22:10.046Z,8304
2019-04-05T14:22:48.546Z,8280
2019-04-05T14:23:47.354Z,8252
2019-04-05T14:24:47.590Z,8228
2019-04-05T14:25:47.581Z,8204
2019-04-05T14:26:50.639Z,8176
2019-04-05T14:27:47.577Z,8148
2019-04-05T14:28:47.578Z,8120
2019-04-05T14:29:50.051Z,8104
2019-04-05T14:30:47.588Z,8104
2019-04-05T14:31:47.341Z,8108
2019-04-05T14:32:50.515Z,8112
2019-04-05T14:33:47.557Z,8108
2019-04-05T14:34:47.552Z,8100
2019-04-05T14:35:47.541Z,8088
2019-04-05T14:36:48.011Z,8076
2019-04-05T14:37:47.530Z,8072
2019-04-05T14:38:47.544Z,8076
2019-04-05T14:39:47.536Z,8084
2019-04-05T14:40:47.523Z,8088
2019-04-05T14:41:47.515Z,8068
2019-04-05T14:42:50.192Z,8040
2019-04-05T14:43:50.283Z,8016
2019-04-05T14:44:47.554Z,7992
2019-04-05T14:45:47.498Z,7968
2019-04-05T14:46:47.500Z,7948
2019-04-05T14:47:48.813Z,7920
2019-04-05T14:48:47.498Z,7896
2019-04-05T14:49:47.493Z,7868
2019-04-05T14:50:47.473Z,7824
2019-04-05T14:52:04.103Z,7768
2019-04-05T14:52:49.527Z,7728
2019-04-05T14:53:47.472Z,7664
2019-04-05T14:54:50.333Z,7596
2019-04-05T14:55:47.212Z,7532
2019-04-05T14:56:47.453Z,7464
2019-04-05T14:57:47.447Z,7408
2019-04-05T14:58:47.478Z,7356
2019-04-05T14:59:47.438Z,7312
2019-04-05T15:00:50.739Z,7268
2019-04-05T15:01:51.653Z,7228
2019-04-05T15:02:48.744Z,7200
2019-04-05T15:03:47.418Z,7168
2019-04-05T15:04:49.350Z,7140
2019-04-05T15:05:47.406Z,7112
2019-04-05T15:06:48.607Z,7080
2019-04-05T15:07:50.638Z,7044
2019-04-05T15:08:52.061Z,6996
2019-04-05T15:09:47.393Z,6964
2019-04-05T15:10:47.384Z,6916
2019-04-05T15:11:47.403Z,6868
2019-04-05T15:12:47.379Z,6820